sensor_id;sensor_type;location;lat;lon;timestamp;pressure;altitude;pressure_sealevel;temperature;humidity
11343;BME280;5726;42.160;24.746;2023-03-19T00:01:47;100165.00;;;6.50;60.65
11343;BME280;5726;42.160;24.746;2023-03-19T00:04:13;100175.09;;;6.48;60.74
11343;BME280;5726;42.160;24.746;2023-03-19T00:06:40;100179.75;;;6.20;62.27
11343;BME280;5726;42.160;24.746;2023-03-19T00:09:06;100175.22;;;6.20;62.50
11343;BME280;5726;42.160;24.746;2023-03-19T00:11:31;100175.47;;;6.19;62.00
11343;BME280;5726;42.160;24.746;2023-03-19T00:13:57;100176.47;;;6.34;61.49
11343;BME280;5726;42.160;24.746;2023-03-19T00:16:22;100170.41;;;6.39;60.53
11343;BME280;5726;42.160;24.746;2023-03-19T00:18:48;100173.06;;;5.85;62.95
11343;BME280;5726;42.160;24.746;2023-03-19T00:21:13;100165.53;;;6.15;62.24
11343;BME280;5726;42.160;24.746;2023-03-19T00:23:39;100161.19;;;6.09;62.54
11343;BME280;5726;42.160;24.746;2023-03-19T00:26:05;100161.03;;;5.99;62.77
11343;BME280;5726;42.160;24.746;2023-03-19T00:28:30;100162.25;;;5.91;63.69
11343;BME280;5726;42.160;24.746;2023-03-19T00:30:56;100152.50;;;5.97;63.31
11343;BME280;5726;42.160;24.746;2023-03-19T00:33:21;100149.75;;;6.08;62.47
11343;BME280;5726;42.160;24.746;2023-03-19T00:35:47;100150.75;;;5.86;63.16
11343;BME280;5726;42.160;24.746;2023-03-19T00:38:13;100138.16;;;5.98;62.04
11343;BME280;5726;42.160;24.746;2023-03-19T00:40:38;100143.28;;;5.55;64.29
11343;BME280;5726;42.160;24.746;2023-03-19T00:43:04;100141.81;;;5.64;64.17
11343;BME280;5726;42.160;24.746;2023-03-19T00:45:29;100134.78;;;5.86;62.74
11343;BME280;5726;42.160;24.746;2023-03-19T00:47:55;100139.56;;;5.40;65.15
11343;BME280;5726;42.160;24.746;2023-03-19T00:50:22;100129.00;;;5.61;64.06
11343;BME280;5726;42.160;24.746;2023-03-19T00:52:49;100132.06;;;5.53;64.00
11343;BME280;5726;42.160;24.746;2023-03-19T00:55:15;100128.03;;;5.51;63.98
11343;BME280;5726;42.160;24.746;2023-03-19T00:57:40;100134.47;;;5.38;64.24
11343;BME280;5726;42.160;24.746;2023-03-19T01:00:06;100134.59;;;5.76;62.56
11343;BME280;5726;42.160;24.746;2023-03-19T01:02:32;100131.38;;;5.74;61.60
11343;BME280;5726;42.160;24.746;2023-03-19T01:04:58;100124.38;;;5.84;61.29
11343;BME280;5726;42.160;24.746;2023-03-19T01:07:23;100124.84;;;5.98;60.35
11343;BME280;5726;42.160;24.746;2023-03-19T01:09:49;100122.78;;;6.05;59.89
11343;BME280;5726;42.160;24.746;2023-03-19T01:12:16;100118.31;;;5.89;60.32
11343;BME280;5726;42.160;24.746;2023-03-19T01:14:43;100123.00;;;5.82;59.94
11343;BME280;5726;42.160;24.746;2023-03-19T01:17:09;100122.34;;;5.75;60.60
11343;BME280;5726;42.160;24.746;2023-03-19T01:19:34;100116.53;;;5.78;60.90
11343;BME280;5726;42.160;24.746;2023-03-19T01:22:00;100119.34;;;5.88;60.46
11343;BME280;5726;42.160;24.746;2023-03-19T01:24:30;100116.03;;;5.81;60.75
11343;BME280;5726;42.160;24.746;2023-03-19T01:26:56;100111.03;;;5.68;61.53
11343;BME280;5726;42.160;24.746;2023-03-19T01:29:21;100116.53;;;5.78;61.35
11343;BME280;5726;42.160;24.746;2023-03-19T01:31:47;100125.56;;;5.93;61.15
11343;BME280;5726;42.160;24.746;2023-03-19T01:34:12;100124.50;;;5.78;61.15
11343;BME280;5726;42.160;24.746;2023-03-19T01:36:38;100128.31;;;5.82;61.51
11343;BME280;5726;42.160;24.746;2023-03-19T01:39:03;100120.50;;;5.92;61.31
11343;BME280;5726;42.160;24.746;2023-03-19T01:41:29;100124.41;;;5.73;61.50
11343;BME280;5726;42.160;24.746;2023-03-19T01:43:54;100115.06;;;5.87;61.07
11343;BME280;5726;42.160;24.746;2023-03-19T01:46:31;100109.75;;;5.87;60.83
11343;BME280;5726;42.160;24.746;2023-03-19T01:49:00;100120.38;;;5.70;61.54
11343;BME280;5726;42.160;24.746;2023-03-19T01:51:31;100120.22;;;5.44;63.17
11343;BME280;5726;42.160;24.746;2023-03-19T01:54:02;100119.31;;;5.22;64.21
11343;BME280;5726;42.160;24.746;2023-03-19T01:56:29;100121.78;;;5.13;65.24
11343;BME280;5726;42.160;24.746;2023-03-19T01:59:01;100121.34;;;5.48;63.06
11343;BME280;5726;42.160;24.746;2023-03-19T02:01:28;100128.84;;;5.51;63.04
11343;BME280;5726;42.160;24.746;2023-03-19T02:03:58;100136.25;;;5.49;62.74
11343;BME280;5726;42.160;24.746;2023-03-19T02:06:24;100132.16;;;5.58;63.03
11343;BME280;5726;42.160;24.746;2023-03-19T02:08:52;100125.06;;;5.64;62.51
11343;BME280;5726;42.160;24.746;2023-03-19T02:11:18;100125.81;;;5.75;62.31
11343;BME280;5726;42.160;24.746;2023-03-19T02:13:44;100130.91;;;5.77;61.92
11343;BME280;5726;42.160;24.746;2023-03-19T02:16:11;100130.06;;;5.93;61.50
11343;BME280;5726;42.160;24.746;2023-03-19T02:18:36;100129.09;;;5.99;61.03
11343;BME280;5726;42.160;24.746;2023-03-19T02:21:06;100135.47;;;6.14;60.06
11343;BME280;5726;42.160;24.746;2023-03-19T02:24:00;100139.03;;;6.41;59.35
11343;BME280;5726;42.160;24.746;2023-03-19T02:26:28;100150.13;;;6.54;58.62
11343;BME280;5726;42.160;24.746;2023-03-19T02:28:55;100149.00;;;6.50;58.39
11343;BME280;5726;42.160;24.746;2023-03-19T02:31:22;100150.38;;;6.74;57.62
11343;BME280;5726;42.160;24.746;2023-03-19T02:36:35;100139.44;;;6.97;55.84
11343;BME280;5726;42.160;24.746;2023-03-19T02:39:07;100157.34;;;6.75;56.44
11343;BME280;5726;42.160;24.746;2023-03-19T02:41:36;100154.34;;;6.71;56.65
11343;BME280;5726;42.160;24.746;2023-03-19T02:44:03;100159.91;;;6.70;56.59
11343;BME280;5726;42.160;24.746;2023-03-19T02:46:30;100162.22;;;6.83;56.14
11343;BME280;5726;42.160;24.746;2023-03-19T02:48:56;100164.00;;;6.99;55.44
11343;BME280;5726;42.160;24.746;2023-03-19T02:51:21;100161.03;;;6.74;55.98
11343;BME280;5726;42.160;24.746;2023-03-19T02:53:47;100163.06;;;7.10;54.29
11343;BME280;5726;42.160;24.746;2023-03-19T02:56:12;100154.94;;;7.00;54.25
11343;BME280;5726;42.160;24.746;2023-03-19T02:58:38;100162.53;;;6.65;56.14
11343;BME280;5726;42.160;24.746;2023-03-19T03:01:03;100153.78;;;6.69;56.14
11343;BME280;5726;42.160;24.746;2023-03-19T03:03:30;100158.69;;;6.99;54.84
11343;BME280;5726;42.160;24.746;2023-03-19T03:05:56;100156.91;;;6.62;56.31
11343;BME280;5726;42.160;24.746;2023-03-19T03:08:22;100157.44;;;6.42;56.93
11343;BME280;5726;42.160;24.746;2023-03-19T03:10:47;100155.47;;;6.54;56.75
11343;BME280;5726;42.160;24.746;2023-03-19T03:13:13;100161.97;;;6.25;57.59
11343;BME280;5726;42.160;24.746;2023-03-19T03:15:38;100160.59;;;6.39;57.55
11343;BME280;5726;42.160;24.746;2023-03-19T03:18:04;100160.38;;;6.24;57.97
11343;BME280;5726;42.160;24.746;2023-03-19T03:20:30;100166.34;;;5.99;59.36
11343;BME280;5726;42.160;24.746;2023-03-19T03:22:55;100160.88;;;6.21;59.00
11343;BME280;5726;42.160;24.746;2023-03-19T03:25:21;100171.78;;;6.41;57.87
11343;BME280;5726;42.160;24.746;2023-03-19T03:27:46;100170.00;;;6.47;58.07
11343;BME280;5726;42.160;24.746;2023-03-19T03:30:12;100166.91;;;6.33;58.01
11343;BME280;5726;42.160;24.746;2023-03-19T03:32:40;100171.19;;;6.18;58.94
11343;BME280;5726;42.160;24.746;2023-03-19T03:35:07;100169.41;;;6.23;58.32
11343;BME280;5726;42.160;24.746;2023-03-19T03:37:32;100176.38;;;5.92;60.28
11343;BME280;5726;42.160;24.746;2023-03-19T03:39:58;100176.63;;;5.90;60.51
11343;BME280;5726;42.160;24.746;2023-03-19T03:42:23;100178.19;;;6.08;60.18
11343;BME280;5726;42.160;24.746;2023-03-19T03:44:49;100175.94;;;6.32;58.40
11343;BME280;5726;42.160;24.746;2023-03-19T03:47:15;100175.56;;;5.91;60.49
11343;BME280;5726;42.160;24.746;2023-03-19T03:49:42;100175.53;;;6.08;60.08
11343;BME280;5726;42.160;24.746;2023-03-19T03:52:07;100178.06;;;5.98;59.79
11343;BME280;5726;42.160;24.746;2023-03-19T03:54:33;100172.66;;;5.93;60.44
11343;BME280;5726;42.160;24.746;2023-03-19T03:56:59;100174.06;;;6.33;58.40
11343;BME280;5726;42.160;24.746;2023-03-19T03:59:25;100186.50;;;6.27;58.35
11343;BME280;5726;42.160;24.746;2023-03-19T04:01:50;100178.28;;;6.29;57.36
11343;BME280;5726;42.160;24.746;2023-03-19T04:04:17;100185.31;;;6.18;58.29
11343;BME280;5726;42.160;24.746;2023-03-19T04:06:44;100187.00;;;6.24;58.34
11343;BME280;5726;42.160;24.746;2023-03-19T04:09:10;100183.47;;;6.40;58.47
11343;BME280;5726;42.160;24.746;2023-03-19T04:11:37;100187.00;;;6.24;59.02
11343;BME280;5726;42.160;24.746;2023-03-19T04:14:03;100187.78;;;6.25;59.25
11343;BME280;5726;42.160;24.746;2023-03-19T04:16:28;100191.34;;;6.30;59.10
11343;BME280;5726;42.160;24.746;2023-03-19T04:18:54;100190.50;;;6.46;58.61
11343;BME280;5726;42.160;24.746;2023-03-19T04:21:19;100186.19;;;6.62;57.46
11343;BME280;5726;42.160;24.746;2023-03-19T04:23:45;100181.31;;;6.75;56.62
11343;BME280;5726;42.160;24.746;2023-03-19T04:26:11;100177.88;;;6.58;57.16
11343;BME280;5726;42.160;24.746;2023-03-19T04:28:37;100186.09;;;6.35;57.73
11343;BME280;5726;42.160;24.746;2023-03-19T04:31:05;100189.53;;;6.36;57.61
11343;BME280;5726;42.160;24.746;2023-03-19T04:33:31;100196.81;;;6.40;57.25
11343;BME280;5726;42.160;24.746;2023-03-19T04:35:57;100194.91;;;6.19;57.84
11343;BME280;5726;42.160;24.746;2023-03-19T04:38:24;100198.16;;;6.05;58.39
11343;BME280;5726;42.160;24.746;2023-03-19T04:40:53;100190.31;;;5.82;59.61
11343;BME280;5726;42.160;24.746;2023-03-19T04:43:19;100197.19;;;6.11;58.23
11343;BME280;5726;42.160;24.746;2023-03-19T04:45:45;100195.56;;;5.94;58.70
11343;BME280;5726;42.160;24.746;2023-03-19T04:48:10;100194.91;;;5.87;59.97
11343;BME280;5726;42.160;24.746;2023-03-19T04:50:37;100194.16;;;6.08;58.06
11343;BME280;5726;42.160;24.746;2023-03-19T04:53:03;100195.72;;;5.87;59.55
11343;BME280;5726;42.160;24.746;2023-03-19T04:55:29;100203.47;;;6.21;57.81
11343;BME280;5726;42.160;24.746;2023-03-19T04:57:54;100198.38;;;5.87;58.92
11343;BME280;5726;42.160;24.746;2023-03-19T05:00:20;100197.97;;;5.95;59.04
11343;BME280;5726;42.160;24.746;2023-03-19T05:02:46;100187.66;;;5.99;58.79
11343;BME280;5726;42.160;24.746;2023-03-19T05:05:11;100194.41;;;5.90;59.16
11343;BME280;5726;42.160;24.746;2023-03-19T05:07:39;100201.84;;;5.88;58.96
11343;BME280;5726;42.160;24.746;2023-03-19T05:10:06;100205.22;;;6.00;58.54
11343;BME280;5726;42.160;24.746;2023-03-19T05:12:32;100212.19;;;5.73;60.06
11343;BME280;5726;42.160;24.746;2023-03-19T05:14:58;100218.13;;;5.91;59.33
11343;BME280;5726;42.160;24.746;2023-03-19T05:17:23;100223.94;;;5.88;59.59
11343;BME280;5726;42.160;24.746;2023-03-19T05:19:49;100224.28;;;6.08;58.66
11343;BME280;5726;42.160;24.746;2023-03-19T05:22:16;100218.59;;;6.37;57.71
11343;BME280;5726;42.160;24.746;2023-03-19T05:24:42;100216.56;;;6.44;57.20
11343;BME280;5726;42.160;24.746;2023-03-19T05:27:07;100218.25;;;6.50;56.96
11343;BME280;5726;42.160;24.746;2023-03-19T05:29:33;100213.25;;;6.54;56.65
11343;BME280;5726;42.160;24.746;2023-03-19T05:31:58;100218.59;;;6.21;57.85
11343;BME280;5726;42.160;24.746;2023-03-19T05:34:27;100220.25;;;6.06;58.68
11343;BME280;5726;42.160;24.746;2023-03-19T05:36:53;100223.94;;;6.21;58.71
11343;BME280;5726;42.160;24.746;2023-03-19T05:39:18;100227.31;;;6.33;58.41
11343;BME280;5726;42.160;24.746;2023-03-19T05:41:44;100219.16;;;6.56;58.23
11343;BME280;5726;42.160;24.746;2023-03-19T05:44:10;100229.94;;;6.65;58.21
11343;BME280;5726;42.160;24.746;2023-03-19T05:46:35;100230.66;;;6.61;56.86
11343;BME280;5726;42.160;24.746;2023-03-19T05:49:00;100232.75;;;6.97;55.92
11343;BME280;5726;42.160;24.746;2023-03-19T05:51:26;100234.91;;;7.00;55.78
11343;BME280;5726;42.160;24.746;2023-03-19T05:53:51;100243.53;;;7.49;54.53
11343;BME280;5726;42.160;24.746;2023-03-19T05:56:17;100245.69;;;7.52;54.71
11343;BME280;5726;42.160;24.746;2023-03-19T05:58:42;100233.38;;;8.04;53.21
11343;BME280;5726;42.160;24.746;2023-03-19T06:01:08;100234.31;;;8.50;51.54
11343;BME280;5726;42.160;24.746;2023-03-19T06:03:33;100234.00;;;8.93;53.59
11343;BME280;5726;42.160;24.746;2023-03-19T06:05:59;100240.63;;;9.41;54.54
11343;BME280;5726;42.160;24.746;2023-03-19T06:08:25;100243.41;;;9.86;56.36
11343;BME280;5726;42.160;24.746;2023-03-19T06:10:51;100249.88;;;10.44;48.27
11343;BME280;5726;42.160;24.746;2023-03-19T06:13:17;100261.63;;;10.83;47.15
11343;BME280;5726;42.160;24.746;2023-03-19T06:15:43;100258.03;;;11.17;47.62
11343;BME280;5726;42.160;24.746;2023-03-19T06:18:08;100254.03;;;11.09;43.11
11343;BME280;5726;42.160;24.746;2023-03-19T06:20:34;100255.97;;;11.67;48.12
11343;BME280;5726;42.160;24.746;2023-03-19T06:22:59;100251.19;;;11.54;44.22
11343;BME280;5726;42.160;24.746;2023-03-19T06:25:24;100269.13;;;12.11;44.64
11343;BME280;5726;42.160;24.746;2023-03-19T06:27:50;100267.91;;;12.27;40.85
11343;BME280;5726;42.160;24.746;2023-03-19T06:30:15;100260.38;;;12.29;42.09
11343;BME280;5726;42.160;24.746;2023-03-19T06:32:41;100264.78;;;12.48;41.35
11343;BME280;5726;42.160;24.746;2023-03-19T06:35:07;100250.63;;;12.38;41.73
11343;BME280;5726;42.160;24.746;2023-03-19T06:37:33;100260.19;;;13.05;40.76
11343;BME280;5726;42.160;24.746;2023-03-19T06:39:58;100243.88;;;13.38;39.59
11343;BME280;5726;42.160;24.746;2023-03-19T06:42:24;100243.56;;;13.45;38.49
11343;BME280;5726;42.160;24.746;2023-03-19T06:44:49;100249.53;;;13.19;37.95
11343;BME280;5726;42.160;24.746;2023-03-19T06:47:15;100248.38;;;13.25;38.58
11343;BME280;5726;42.160;24.746;2023-03-19T06:49:40;100243.97;;;13.10;38.75
11343;BME280;5726;42.160;24.746;2023-03-19T06:52:06;100234.06;;;13.29;38.23
11343;BME280;5726;42.160;24.746;2023-03-19T06:54:32;100234.50;;;12.89;38.89
11343;BME280;5726;42.160;24.746;2023-03-19T06:56:58;100240.03;;;12.46;39.72
11343;BME280;5726;42.160;24.746;2023-03-19T06:59:24;100234.31;;;12.25;40.23
11343;BME280;5726;42.160;24.746;2023-03-19T07:01:50;100235.56;;;12.04;40.68
11343;BME280;5726;42.160;24.746;2023-03-19T07:04:17;100230.13;;;12.42;40.56
11343;BME280;5726;42.160;24.746;2023-03-19T07:06:42;100235.63;;;12.89;41.95
11343;BME280;5726;42.160;24.746;2023-03-19T07:09:07;100229.81;;;13.23;40.59
11343;BME280;5726;42.160;24.746;2023-03-19T07:11:33;100225.06;;;13.57;39.15
11343;BME280;5726;42.160;24.746;2023-03-19T07:13:58;100225.06;;;13.57;38.72
11343;BME280;5726;42.160;24.746;2023-03-19T07:16:24;100231.63;;;13.69;39.28
11343;BME280;5726;42.160;24.746;2023-03-19T07:18:50;100224.78;;;14.13;39.10
11343;BME280;5726;42.160;24.746;2023-03-19T07:21:15;100227.13;;;14.78;38.04
11343;BME280;5726;42.160;24.746;2023-03-19T07:23:41;100221.34;;;15.38;36.75
11343;BME280;5726;42.160;24.746;2023-03-19T07:26:06;100221.25;;;14.89;37.08
11343;BME280;5726;42.160;24.746;2023-03-19T07:28:32;100219.28;;;15.08;36.33
11343;BME280;5726;42.160;24.746;2023-03-19T07:30:57;100209.25;;;15.49;35.88
11343;BME280;5726;42.160;24.746;2023-03-19T07:33:22;100219.13;;;15.67;35.31
11343;BME280;5726;42.160;24.746;2023-03-19T07:35:48;100215.47;;;15.09;35.89
11343;BME280;5726;42.160;24.746;2023-03-19T07:38:14;100209.34;;;14.64;36.55
11343;BME280;5726;42.160;24.746;2023-03-19T07:40:39;100213.03;;;14.68;38.22
11343;BME280;5726;42.160;24.746;2023-03-19T07:43:05;100198.16;;;14.83;36.82
11343;BME280;5726;42.160;24.746;2023-03-19T07:45:31;100210.28;;;14.86;37.28
11343;BME280;5726;42.160;24.746;2023-03-19T07:47:56;100210.97;;;15.18;36.26
11343;BME280;5726;42.160;24.746;2023-03-19T07:50:22;100204.13;;;15.82;37.27
11343;BME280;5726;42.160;24.746;2023-03-19T07:52:48;100196.63;;;16.67;34.19
11343;BME280;5726;42.160;24.746;2023-03-19T07:55:15;100202.22;;;16.70;33.34
11343;BME280;5726;42.160;24.746;2023-03-19T07:57:41;100205.69;;;16.32;33.24
11343;BME280;5726;42.160;24.746;2023-03-19T08:00:09;100207.00;;;16.65;32.46
11343;BME280;5726;42.160;24.746;2023-03-19T08:02:35;100203.88;;;16.88;32.68
11343;BME280;5726;42.160;24.746;2023-03-19T08:05:00;100206.03;;;16.99;31.59
11343;BME280;5726;42.160;24.746;2023-03-19T08:07:31;100206.59;;;16.79;31.63
11343;BME280;5726;42.160;24.746;2023-03-19T08:09:57;100212.50;;;16.29;32.44
11343;BME280;5726;42.160;24.746;2023-03-19T08:12:24;100200.34;;;16.49;33.09
11343;BME280;5726;42.160;24.746;2023-03-19T08:14:49;100197.00;;;16.74;32.08
11343;BME280;5726;42.160;24.746;2023-03-19T08:17:15;100190.84;;;17.37;31.54
11343;BME280;5726;42.160;24.746;2023-03-19T08:19:41;100189.44;;;17.48;30.63
11343;BME280;5726;42.160;24.746;2023-03-19T08:22:06;100196.28;;;17.37;32.07
11343;BME280;5726;42.160;24.746;2023-03-19T08:24:32;100184.34;;;17.55;31.03
11343;BME280;5726;42.160;24.746;2023-03-19T08:26:58;100187.63;;;16.88;31.40
11343;BME280;5726;42.160;24.746;2023-03-19T08:29:23;100184.38;;;17.08;31.27
11343;BME280;5726;42.160;24.746;2023-03-19T08:31:52;100188.22;;;17.15;31.17
11343;BME280;5726;42.160;24.746;2023-03-19T08:34:17;100179.59;;;17.05;30.81
11343;BME280;5726;42.160;24.746;2023-03-19T08:36:43;100178.34;;;17.19;31.23
11343;BME280;5726;42.160;24.746;2023-03-19T08:39:08;100172.50;;;17.25;32.31
11343;BME280;5726;42.160;24.746;2023-03-19T08:41:34;100172.38;;;17.39;30.67
11343;BME280;5726;42.160;24.746;2023-03-19T08:43:59;100171.91;;;17.45;30.25
11343;BME280;5726;42.160;24.746;2023-03-19T08:46:25;100164.72;;;17.41;30.07
11343;BME280;5726;42.160;24.746;2023-03-19T08:48:52;100170.13;;;17.24;30.03
11343;BME280;5726;42.160;24.746;2023-03-19T08:51:17;100166.91;;;17.22;31.82
11343;BME280;5726;42.160;24.746;2023-03-19T08:53:43;100165.84;;;17.57;31.74
11343;BME280;5726;42.160;24.746;2023-03-19T08:58:55;100165.69;;;17.53;31.26
11343;BME280;5726;42.160;24.746;2023-03-19T09:01:20;100162.66;;;17.80;34.86
11343;BME280;5726;42.160;24.746;2023-03-19T09:03:46;100157.84;;;17.52;31.71
11343;BME280;5726;42.160;24.746;2023-03-19T09:06:12;100162.81;;;17.50;33.41
11343;BME280;5726;42.160;24.746;2023-03-19T09:08:41;100153.22;;;17.44;34.99
11343;BME280;5726;42.160;24.746;2023-03-19T09:11:06;100152.09;;;17.28;33.01
11343;BME280;5726;42.160;24.746;2023-03-19T09:13:32;100146.59;;;17.11;31.70
11343;BME280;5726;42.160;24.746;2023-03-19T09:15:58;100144.88;;;17.15;31.25
11343;BME280;5726;42.160;24.746;2023-03-19T09:18:23;100145.72;;;17.24;31.40
11343;BME280;5726;42.160;24.746;2023-03-19T09:20:50;100137.41;;;17.21;36.43
11343;BME280;5726;42.160;24.746;2023-03-19T09:23:16;100126.28;;;17.39;31.83
11343;BME280;5726;42.160;24.746;2023-03-19T09:25:41;100127.22;;;17.43;33.16
11343;BME280;5726;42.160;24.746;2023-03-19T09:28:07;100119.75;;;17.48;33.69
11343;BME280;5726;42.160;24.746;2023-03-19T09:30:33;100120.59;;;17.10;32.27
11343;BME280;5726;42.160;24.746;2023-03-19T09:32:58;100121.44;;;17.19;33.67
11343;BME280;5726;42.160;24.746;2023-03-19T09:35:24;100116.53;;;17.55;31.64
11343;BME280;5726;42.160;24.746;2023-03-19T09:37:56;100114.94;;;17.37;32.96
11343;BME280;5726;42.160;24.746;2023-03-19T09:40:26;100127.06;;;17.23;32.97
11343;BME280;5726;42.160;24.746;2023-03-19T09:45:44;100115.38;;;17.14;33.17
11343;BME280;5726;42.160;24.746;2023-03-19T09:48:39;100098.63;;;17.12;32.69
11343;BME280;5726;42.160;24.746;2023-03-19T09:51:05;100096.63;;;16.78;34.55
11343;BME280;5726;42.160;24.746;2023-03-19T09:53:46;100100.66;;;16.51;35.48
11343;BME280;5726;42.160;24.746;2023-03-19T09:56:15;100083.25;;;16.74;34.42
11343;BME280;5726;42.160;24.746;2023-03-19T09:58:41;100086.19;;;17.02;34.61
11343;BME280;5726;42.160;24.746;2023-03-19T10:01:20;100079.19;;;17.18;34.85
11343;BME280;5726;42.160;24.746;2023-03-19T10:04:20;100084.28;;;17.11;33.54
11343;BME280;5726;42.160;24.746;2023-03-19T10:06:59;100081.94;;;17.43;34.54
11343;BME280;5726;42.160;24.746;2023-03-19T10:09:51;100067.44;;;17.48;34.90
11343;BME280;5726;42.160;24.746;2023-03-19T10:12:44;100069.63;;;17.79;35.49
11343;BME280;5726;42.160;24.746;2023-03-19T10:17:56;100061.84;;;17.61;35.23
11343;BME280;5726;42.160;24.746;2023-03-19T10:25:38;100047.66;;;17.56;34.52
11343;BME280;5726;42.160;24.746;2023-03-19T10:28:16;100043.81;;;17.40;34.86
11343;BME280;5726;42.160;24.746;2023-03-19T10:30:49;100038.72;;;17.38;34.33
11343;BME280;5726;42.160;24.746;2023-03-19T10:33:23;100029.16;;;17.24;35.45
11343;BME280;5726;42.160;24.746;2023-03-19T10:35:57;100020.03;;;16.78;35.87
11343;BME280;5726;42.160;24.746;2023-03-19T10:38:26;100009.69;;;17.05;36.09
11343;BME280;5726;42.160;24.746;2023-03-19T10:43:47;99997.06;;;17.18;35.84
11343;BME280;5726;42.160;24.746;2023-03-19T10:46:14;99999.81;;;17.43;35.86
11343;BME280;5726;42.160;24.746;2023-03-19T10:48:44;100001.22;;;17.66;35.47
11343;BME280;5726;42.160;24.746;2023-03-19T10:51:14;99997.16;;;17.80;35.92
11343;BME280;5726;42.160;24.746;2023-03-19T10:53:41;99990.78;;;17.84;35.72
11343;BME280;5726;42.160;24.746;2023-03-19T10:56:17;99983.34;;;18.19;34.75
11343;BME280;5726;42.160;24.746;2023-03-19T11:01:20;99977.16;;;18.01;34.23
11343;BME280;5726;42.160;24.746;2023-03-19T11:03:51;99979.22;;;18.04;34.99
11343;BME280;5726;42.160;24.746;2023-03-19T11:06:35;99966.06;;;18.23;34.37
11343;BME280;5726;42.160;24.746;2023-03-19T11:09:13;99962.00;;;18.00;34.99
11343;BME280;5726;42.160;24.746;2023-03-19T11:11:47;99962.44;;;18.19;36.04
11343;BME280;5726;42.160;24.746;2023-03-19T11:16:56;99951.44;;;18.44;35.31
11343;BME280;5726;42.160;24.746;2023-03-19T11:19:25;99950.78;;;18.67;37.57
11343;BME280;5726;42.160;24.746;2023-03-19T11:22:15;99952.34;;;18.48;36.06
11343;BME280;5726;42.160;24.746;2023-03-19T11:24:49;99942.44;;;18.72;33.97
11343;BME280;5726;42.160;24.746;2023-03-19T11:27:15;99939.84;;;18.56;33.35
11343;BME280;5726;42.160;24.746;2023-03-19T11:29:42;99932.75;;;18.43;34.49
11343;BME280;5726;42.160;24.746;2023-03-19T11:35:14;99929.25;;;18.63;34.48
11343;BME280;5726;42.160;24.746;2023-03-19T11:38:01;99921.38;;;18.69;33.32
11343;BME280;5726;42.160;24.746;2023-03-19T11:40:43;99913.41;;;18.65;34.96
11343;BME280;5726;42.160;24.746;2023-03-19T11:51:37;99899.28;;;18.30;34.42
11343;BME280;5726;42.160;24.746;2023-03-19T11:54:20;99897.25;;;18.48;34.72
11343;BME280;5726;42.160;24.746;2023-03-19T11:57:03;99904.00;;;18.42;36.14
11343;BME280;5726;42.160;24.746;2023-03-19T12:13:15;99892.19;;;18.38;34.45
11343;BME280;5726;42.160;24.746;2023-03-19T12:21:10;99879.03;;;18.28;34.53
11343;BME280;5726;42.160;24.746;2023-03-19T12:26:47;99885.34;;;18.61;33.84
11343;BME280;5726;42.160;24.746;2023-03-19T12:32:08;99885.19;;;18.57;34.92
11343;BME280;5726;42.160;24.746;2023-03-19T12:34:44;99877.22;;;18.32;35.05
11343;BME280;5726;42.160;24.746;2023-03-19T12:39:51;99869.28;;;18.67;33.90
11343;BME280;5726;42.160;24.746;2023-03-19T12:42:20;99862.66;;;18.57;35.05
11343;BME280;5726;42.160;24.746;2023-03-19T12:44:51;99862.00;;;18.60;34.05
11343;BME280;5726;42.160;24.746;2023-03-19T12:49:54;99844.69;;;18.84;33.53
11343;BME280;5726;42.160;24.746;2023-03-19T12:52:25;99848.47;;;18.92;33.46
11343;BME280;5726;42.160;24.746;2023-03-19T12:57:52;99835.50;;;18.57;34.00
11343;BME280;5726;42.160;24.746;2023-03-19T13:00:29;99835.78;;;18.64;33.64
11343;BME280;5726;42.160;24.746;2023-03-19T13:03:12;99843.16;;;18.75;34.02
11343;BME280;5726;42.160;24.746;2023-03-19T13:05:58;99831.13;;;18.84;34.19
11343;BME280;5726;42.160;24.746;2023-03-19T13:10:50;99828.16;;;19.10;33.60
11343;BME280;5726;42.160;24.746;2023-03-19T13:21:43;99808.91;;;19.15;33.47
11343;BME280;5726;42.160;24.746;2023-03-19T13:24:22;99806.75;;;19.08;32.99
11343;BME280;5726;42.160;24.746;2023-03-19T13:26:50;99803.81;;;19.13;32.97
11343;BME280;5726;42.160;24.746;2023-03-19T13:29:25;99788.44;;;19.29;32.36
11343;BME280;5726;42.160;24.746;2023-03-19T13:31:52;99787.94;;;19.15;32.27
11343;BME280;5726;42.160;24.746;2023-03-19T13:34:25;99788.56;;;19.00;33.05
11343;BME280;5726;42.160;24.746;2023-03-19T13:37:00;99777.22;;;19.18;32.74
11343;BME280;5726;42.160;24.746;2023-03-19T13:39:31;99785.81;;;19.20;33.11
11343;BME280;5726;42.160;24.746;2023-03-19T13:42:35;99781.06;;;19.29;32.99
11343;BME280;5726;42.160;24.746;2023-03-19T13:47:48;99773.13;;;19.13;33.57
11343;BME280;5726;42.160;24.746;2023-03-19T13:50:29;99767.53;;;19.09;34.19
11343;BME280;5726;42.160;24.746;2023-03-19T13:55:49;99757.78;;;18.96;34.02
11343;BME280;5726;42.160;24.746;2023-03-19T13:58:22;99757.34;;;19.06;33.88
11343;BME280;5726;42.160;24.746;2023-03-19T14:01:12;99746.38;;;19.03;34.21
11343;BME280;5726;42.160;24.746;2023-03-19T14:03:58;99747.28;;;19.07;34.72
11343;BME280;5726;42.160;24.746;2023-03-19T14:06:51;99744.25;;;19.32;34.14
11343;BME280;5726;42.160;24.746;2023-03-19T14:11:54;99744.56;;;19.07;33.75
11343;BME280;5726;42.160;24.746;2023-03-19T14:14:22;99741.88;;;18.86;33.99
11343;BME280;5726;42.160;24.746;2023-03-19T14:16:49;99741.00;;;18.94;34.35
11343;BME280;5726;42.160;24.746;2023-03-19T14:19:18;99734.22;;;19.00;33.66
11343;BME280;5726;42.160;24.746;2023-03-19T14:24:33;99741.75;;;19.27;33.40
11343;BME280;5726;42.160;24.746;2023-03-19T14:29:58;99734.94;;;19.09;33.84
11343;BME280;5726;42.160;24.746;2023-03-19T14:32:31;99741.03;;;19.06;34.27
11343;BME280;5726;42.160;24.746;2023-03-19T14:34:59;99734.16;;;19.09;34.42
11343;BME280;5726;42.160;24.746;2023-03-19T14:37:33;99740.09;;;18.90;34.63